D/T METAR WX W/DIR W/SPE G/SPE TEMP DEWP
15/01/19 22:20 EGHI 152220Z 21007KT 9999 SCT017 BKN035 08/06 Q1015 SSW (210°) 8.1mph 8°C 6°C
15/01/19 21:50 EGHI 152150Z 22007KT 190V260 9999 SCT016 BKN033 07/06 Q1016 SW (220°) 8.1mph 7°C 6°C
15/01/19 21:20 EGHI 152120Z 22008KT 9999 FEW012 BKN022 08/06 Q1016 SW (220°) 9.2mph 8°C 6°C
15/01/19 20:20 EGHI 152020Z 19007KT 9999 BKN035 08/06 Q1016 S (190°) 8.1mph 8°C 6°C
15/01/19 19:50 EGHI 151950Z 20007KT 9999 BKN035 08/05 Q1017 SSW (200°) 8.1mph 8°C 5°C
15/01/19 19:20 EGHI 151920Z 22007KT 9999 BKN033 08/06 Q1017 SW (220°) 8.1mph 8°C 6°C
15/01/19 18:50 EGHI 151850Z 21006KT 180V240 9999 BKN035 08/05 Q1017 SSW (210°) 6.9mph 8°C 5°C
15/01/19 18:20 EGHI 151820Z 21008KT 180V240 9999 BKN031 08/05 Q1017 SSW (210°) 9.2mph 8°C 5°C
15/01/19 17:50 EGHI 151750Z 22008KT 9999 BKN033 09/04 Q1018 SW (220°) 9.2mph 9°C 4°C
15/01/19 17:20 EGHI 151720Z 22007KT 9999 BKN033 09/04 Q1018 SW (220°) 8.1mph 9°C 4°C
15/01/19 16:50 EGHI 151650Z 22008KT 9999 BKN033 09/04 Q1018 SW (220°) 9.2mph 9°C 4°C
15/01/19 16:20 EGHI 151620Z 22007KT 180V250 9999 SCT020 BKN030 09/04 Q1018 SW (220°) 8.1mph 9°C 4°C
15/01/19 15:50 EGHI 151550Z 23008KT 200V260 9999 SCT020 BKN028 09/04 Q1018 SW (230°) 9.2mph 9°C 4°C
15/01/19 15:20 EGHI 151520Z 23007KT 9999 SCT020 BKN028 09/04 Q1019 SW (230°) 8.1mph 9°C 4°C
15/01/19 14:50 EGHI 151450Z 23009KT 200V260 9999 SCT020 BKN025 09/04 Q1019 SW (230°) 10.4mph 9°C 4°C
15/01/19 14:20 EGHI 151420Z 23008KT 9999 SCT020 BKN026 09/05 Q1019 SW (230°) 9.2mph 9°C 5°C
15/01/19 13:50 EGHI 151350Z 24007KT 9999 FEW020 BKN026 09/05 Q1019 WSW (240°) 8.1mph 9°C 5°C
15/01/19 13:20 EGHI 151320Z 23008KT 200V260 9999 FEW020 BKN027 09/05 Q1020 SW (230°) 9.2mph 9°C 5°C
15/01/19 12:50 EGHI 151250Z 24007KT 200V310 9999 FEW020 BKN029 09/05 Q1020 WSW (240°) 8.1mph 9°C 5°C
15/01/19 12:20 EGHI 151220Z 23009KT 200V270 9999 FEW018 BKN023 09/05 Q1020 SW (230°) 10.4mph 9°C 5°C
15/01/19 11:50 EGHI 151150Z 23007KT 9999 FEW016 BKN023 09/05 Q1021 SW (230°) 8.1mph 9°C 5°C
15/01/19 11:20 EGHI 151120Z 23007KT 200V280 9999 VCSH FEW016 BKN024 08/05 Q1021 VCSH SW (230°) 8.1mph 8°C 5°C
15/01/19 10:50 EGHI 151050Z 23007KT 200V260 9999 -RA FEW016 BKN024 08/05 Q1022 -RA SW (230°) 8.1mph 8°C 5°C
15/01/19 10:20 EGHI 151020Z 24005KT 200V280 9999 FEW018 BKN026 08/05 Q1022 WSW (240°) 5.8mph 8°C 5°C
15/01/19 09:50 EGHI 150950Z 23006KT 9999 FEW022 BKN026 07/04 Q1022 SW (230°) 6.9mph 7°C 4°C
15/01/19 08:50 EGHI 150850Z 22005KT 180V250 9999 FEW015 BKN028 07/04 Q1022 SW (220°) 5.8mph 7°C 4°C
15/01/19 08:20 EGHI 150820Z 22005KT 9999 BKN025 07/04 Q1022 SW (220°) 5.8mph 7°C 4°C
15/01/19 07:50 EGHI 150750Z 21005KT 9999 BKN024 06/04 Q1022 SSW (210°) 5.8mph 6°C 4°C
15/01/19 07:20 EGHI 150720Z 21006KT 9999 BKN024 06/04 Q1022 SSW (210°) 6.9mph 6°C 4°C
15/01/19 06:50 EGHI 150650Z 22006KT 9999 BKN024 06/04 Q1022 SW (220°) 6.9mph 6°C 4°C
15/01/19 06:20 EGHI 150620Z 21004KT 9999 BKN022 06/03 Q1022 SSW (210°) 4.6mph 6°C 3°C
15/01/19 05:50 EGHI 150550Z 22003KT 9999 BKN022 05/03 Q1022 SW (220°) 3.5mph 5°C 3°C
14/01/19 22:20 EGHI 142220Z 27004KT 230V300 9999 BKN042 06/02 Q1024 W (270°) 4.6mph 6°C 2°C
14/01/19 21:50 EGHI 142150Z VRB03KT 9999 BKN042 06/02 Q1024 N (0°) 3.5mph 6°C 2°C
14/01/19 21:20 EGHI 142120Z VRB03KT 9999 BKN042 07/01 Q1024 N (0°) 3.5mph 7°C 1°C
14/01/19 20:50 EGHI 142050Z 25004KT 220V280 9999 BKN042 07/01 Q1024 WSW (250°) 4.6mph 7°C 1°C
14/01/19 20:20 EGHI 142020Z VRB03KT 9999 BKN042 07/01 Q1024 N (0°) 3.5mph 7°C 1°C
14/01/19 19:50 EGHI 141950Z VRB03KT 9999 BKN042 07/00 Q1024 N (0°) 3.5mph 7°C 0°C
14/01/19 19:20 EGHI 141920Z VRB03KT 9999 BKN043 07/00 Q1024 N (0°) 3.5mph 7°C 0°C
14/01/19 18:50 EGHI 141850Z VRB03KT 9999 BKN042 07/M00 Q1024 N (0°) 3.5mph 7°C 0°C
14/01/19 18:20 EGHI 141820Z VRB03KT 9999 BKN044 08/M01 Q1024 N (0°) 3.5mph 8°C -1°C
14/01/19 17:50 EGHI 141750Z VRB03KT 9999 BKN044 08/M01 Q1024 N (0°) 3.5mph 8°C -1°C
14/01/19 17:20 EGHI 141720Z VRB03KT 9999 BKN044 08/M00 Q1024 N (0°) 3.5mph 8°C 0°C
14/01/19 16:50 EGHI 141650Z VRB03KT 9999 BKN042 08/00 Q1024 N (0°) 3.5mph 8°C 0°C
14/01/19 16:20 EGHI 141620Z 32005KT 290V010 9999 BKN042 08/M00 Q1024 NW (320°) 5.8mph 8°C 0°C
14/01/19 15:50 EGHI 141550Z 33008KT 290V010 9999 BKN042 08/M01 Q1023 NNW (330°) 9.2mph 8°C -1°C
14/01/19 15:20 EGHI 141520Z 32006KT 280V350 9999 BKN042 08/M00 Q1023 NW (320°) 6.9mph 8°C 0°C
14/01/19 14:50 EGHI 141450Z 31005KT 270V340 9999 BKN044 09/00 Q1023 NW (310°) 5.8mph 9°C 0°C
14/01/19 14:20 EGHI 141420Z 32007KT 270V010 9999 SCT045 09/00 Q1023 NW (320°) 8.1mph 9°C 0°C
14/01/19 13:50 EGHI 141350Z 32009KT 280V350 9999 SCT045 09/M00 Q1023 NW (320°) 10.4mph 9°C 0°C
14/01/19 13:20 EGHI 141320Z 32008KT 280V020 9999 SCT045 09/M00 Q1023 NW (320°) 9.2mph 9°C 0°C
14/01/19 12:50 EGHI 141250Z 32009KT 280V010 9999 SCT044 09/01 Q1023 NW (320°) 10.4mph 9°C 1°C
14/01/19 11:50 EGHI 141150Z 32009KT 280V360 9999 SCT045 09/02 Q1023 NW (320°) 10.4mph 9°C 2°C
14/01/19 11:20 EGHI 141120Z 30007KT 270V350 9999 FEW035 09/01 Q1022 WNW (300°) 8.1mph 9°C 1°C
14/01/19 10:50 EGHI 141050Z 29008KT 250V340 9999 FEW035 08/01 Q1022 WNW (290°) 9.2mph 8°C 1°C
14/01/19 10:20 EGHI 141020Z 28006KT 250V330 9999 FEW035 08/01 Q1022 W (280°) 6.9mph 8°C 1°C
14/01/19 09:50 EGHI 140950Z 29006KT 250V330 9999 FEW040 07/01 Q1022 WNW (290°) 6.9mph 7°C 1°C
14/01/19 09:20 EGHI 140920Z 29007KT 250V310 9999 SCT040 07/01 Q1022 WNW (290°) 8.1mph 7°C 1°C
14/01/19 08:50 EGHI 140850Z 29005KT 250V320 9999 SCT041 06/01 Q1022 WNW (290°) 5.8mph 6°C 1°C
14/01/19 08:20 EGHI 140820Z 27004KT 220V310 9999 SCT041 06/01 Q1021 W (270°) 4.6mph 6°C 1°C
14/01/19 07:50 EGHI 140750Z VRB03KT 9999 SCT039 05/01 Q1021 N (0°) 3.5mph 5°C 1°C
14/01/19 07:20 EGHI 140720Z VRB03KT 9999 FEW043 05/00 Q1020 N (0°) 3.5mph 5°C 0°C
14/01/19 06:50 EGHI 140650Z 29004KT 260V350 9999 FEW043 06/00 Q1020 WNW (290°) 4.6mph 6°C 0°C
14/01/19 05:50 EGHI 140550Z VRB03KT 9999 FEW043 06/00 Q1020 N (0°) 3.5mph 6°C 0°C
13/01/19 22:20 EGHI 132220Z 32016G26KT 280V350 9999 FEW047 09/01 Q1015 NW (320°) 18.4mph 29.9mph 9°C 1°C
13/01/19 21:50 EGHI 132150Z 32011KT 280V020 9999 FEW047 09/02 Q1015 NW (320°) 12.7mph 9°C 2°C
13/01/19 21:20 EGHI 132120Z 29006KT 250V330 9999 FEW047 09/05 Q1015 WNW (290°) 6.9mph 9°C 5°C
13/01/19 20:50 EGHI 132050Z 29007G17KT 250V330 9999 SCT044 09/06 Q1015 WNW (290°) 8.1mph 19.6mph 9°C 6°C
13/01/19 20:20 EGHI 132020Z 27006KT 230V300 9999 SCT044 09/06 Q1014 W (270°) 6.9mph 9°C 6°C
13/01/19 19:20 EGHI 131920Z 27007KT 220V310 9999 SCT044 10/06 Q1014 W (270°) 8.1mph 10°C 6°C
13/01/19 18:50 EGHI 131850Z 27009KT 230V310 9999 FEW016 SCT044 10/07 Q1014 W (270°) 10.4mph 10°C 7°C
13/01/19 18:20 EGHI 131820Z 27009KT 230V310 9999 FEW016 SCT044 10/07 Q1013 W (270°) 10.4mph 10°C 7°C
13/01/19 17:50 EGHI 131750Z 28009KT 220V320 9999 FEW016 BKN044 10/07 Q1014 W (280°) 10.4mph 10°C 7°C
13/01/19 17:20 EGHI 131720Z 27010KT 230V310 9999 SCT014 BKN020 10/07 Q1014 W (270°) 11.5mph 10°C 7°C
13/01/19 16:50 EGHI 131650Z 28008KT 240V330 9999 BKN014 10/07 Q1014 W (280°) 9.2mph 10°C 7°C
13/01/19 16:20 EGHI 131620Z 28013G23KT 240V320 9999 BKN016 10/07 Q1013 W (280°) 15.0mph 26.5mph 10°C 7°C
13/01/19 15:50 EGHI 131550Z 28011KT 240V310 9999 BKN018 10/07 Q1014 W (280°) 12.7mph 10°C 7°C
13/01/19 15:20 EGHI 131520Z 27016KT 230V330 9999 BKN020 10/06 Q1014 W (270°) 18.4mph 10°C 6°C
13/01/19 14:50 EGHI 131450Z 29013G23KT 250V330 9999 BKN022 11/06 Q1014 WNW (290°) 15.0mph 26.5mph 11°C 6°C
13/01/19 14:20 EGHI 131420Z 30015KT 260V340 9999 BKN022 11/06 Q1014 WNW (300°) 17.3mph 11°C 6°C
13/01/19 13:50 EGHI 131350Z 29013KT 250V330 9999 BKN023 11/06 Q1014 WNW (290°) 15.0mph 11°C 6°C
13/01/19 13:20 EGHI 131320Z 28012G22KT 230V330 9999 BKN022 11/06 Q1014 W (280°) 13.8mph 25.3mph 11°C 6°C
13/01/19 12:50 EGHI 131250Z 29011G24KT 230V350 9999 FEW020 11/06 Q1015 WNW (290°) 12.7mph 27.6mph 11°C 6°C
13/01/19 12:20 EGHI 131220Z 29012KT 250V330 9999 FEW016 11/06 Q1015 WNW (290°) 13.8mph 11°C 6°C
13/01/19 11:50 EGHI 131150Z 29012KT 260V340 9999 FEW018 10/06 Q1016 WNW (290°) 13.8mph 10°C 6°C
13/01/19 10:50 EGHI 131050Z 30012G24KT 250V340 9999 SCT018 10/05 Q1017 WNW (300°) 13.8mph 27.6mph 10°C 5°C
13/01/19 10:20 EGHI 131020Z 29013KT 260V340 9999 FEW014 10/05 Q1016 WNW (290°) 15.0mph 10°C 5°C
13/01/19 09:50 EGHI 130950Z 29011KT 250V320 9999 FEW014 09/05 Q1017 WNW (290°) 12.7mph 9°C 5°C
13/01/19 09:20 EGHI 130920Z 30011KT 250V340 9999 FEW015 09/05 Q1017 WNW (300°) 12.7mph 9°C 5°C
13/01/19 08:50 EGHI 130850Z 31011G22KT 260V010 9999 FEW015 09/06 Q1017 NW (310°) 12.7mph 25.3mph 9°C 6°C
13/01/19 08:20 EGHI 130820Z 30015G25KT 270V350 9999 FEW015 09/06 Q1017 WNW (300°) 17.3mph 28.8mph 9°C 6°C
13/01/19 07:50 EGHI 130750Z 29015G26KT 250V340 CAVOK 10/06 Q1016 WNW (290°) 17.3mph 29.9mph 10°C 6°C
13/01/19 07:20 EGHI 130720Z 29016G28KT 250V330 9999 FEW015 10/06 Q1016 WNW (290°) 18.4mph 32.2mph 10°C 6°C
13/01/19 06:50 EGHI 130650Z 28016G28KT 250V320 9999 FEW015 10/06 Q1016 W (280°) 18.4mph 32.2mph 10°C 6°C
12/01/19 21:50 EGHI 122150Z 29009KT 260V320 9999 FEW020 09/06 Q1021 WNW (290°) 10.4mph 9°C 6°C
12/01/19 21:20 EGHI 122120Z 27008KT 9999 SCT020 09/06 Q1021 W (270°) 9.2mph 9°C 6°C
12/01/19 20:50 EGHI 122050Z 28008KT 230V310 9999 SCT020 09/06 Q1022 W (280°) 9.2mph 9°C 6°C
12/01/19 20:20 EGHI 122020Z 28009KT 9999 FEW025 08/05 Q1022 W (280°) 10.4mph 8°C 5°C
12/01/19 19:50 EGHI 121950Z 27011KT 250V310 9999 FEW030 08/05 Q1022 W (270°) 12.7mph 8°C 5°C
12/01/19 19:20 EGHI 121920Z 28010KT 240V310 9999 FEW030 08/05 Q1022 W (280°) 11.5mph 8°C 5°C
12/01/19 18:50 EGHI 121850Z 27009KT 240V310 9999 FEW030 08/05 Q1022 W (270°) 10.4mph 8°C 5°C
12/01/19 18:20 EGHI 121820Z 27009KT 240V300 9999 FEW030 08/05 Q1022 W (270°) 10.4mph 8°C 5°C
12/01/19 17:50 EGHI 121750Z 27009KT 9999 FEW030 08/05 Q1022 W (270°) 10.4mph 8°C 5°C
12/01/19 17:20 EGHI 121720Z 27007KT 220V320 9999 SCT030 08/05 Q1022 W (270°) 8.1mph 8°C 5°C
12/01/19 16:50 EGHI 121650Z 26009KT 9999 FEW025 SCT035 08/05 Q1022 W (260°) 10.4mph 8°C 5°C
12/01/19 16:20 EGHI 121620Z 26009KT 240V310 9999 FEW025 SCT035 09/05 Q1022 W (260°) 10.4mph 9°C 5°C
12/01/19 15:50 EGHI 121550Z 27007KT 240V310 9999 SCT025 09/05 Q1022 W (270°) 8.1mph 9°C 5°C
12/01/19 15:20 EGHI 121520Z 28006KT 240V330 9999 SCT025 10/06 Q1023 W (280°) 6.9mph 10°C 6°C
12/01/19 14:50 EGHI 121450Z 29010KT 270V330 9999 SCT018 10/05 Q1022 WNW (290°) 11.5mph 10°C 5°C
12/01/19 14:20 EGHI 121420Z 29010KT 9999 SCT018 10/06 Q1022 WNW (290°) 11.5mph 10°C 6°C
12/01/19 13:50 EGHI 121350Z 27008KT 9999 FEW015 BKN022 10/07 Q1023 W (270°) 9.2mph 10°C 7°C
12/01/19 13:20 EGHI 121320Z 26008KT 230V300 9999 FEW015 BKN022 10/07 Q1023 W (260°) 9.2mph 10°C 7°C
12/01/19 12:50 EGHI 121250Z 25007KT 220V290 9999 FEW010 BKN015 09/07 Q1023 WSW (250°) 8.1mph 9°C 7°C
12/01/19 12:20 EGHI 121220Z 25008KT 220V290 9999 BKN015 09/07 Q1024 WSW (250°) 9.2mph 9°C 7°C
12/01/19 11:50 EGHI 121150Z 25009KT 9999 SCT013 BKN038 09/07 Q1024 WSW (250°) 10.4mph 9°C 7°C
12/01/19 11:20 EGHI 121120Z 25009KT 9999 FEW010 SCT014 09/06 Q1024 WSW (250°) 10.4mph 9°C 6°C
12/01/19 10:50 EGHI 121050Z 27009KT 230V310 9999 FEW010 SCT022 09/06 Q1025 W (270°) 10.4mph 9°C 6°C
12/01/19 09:50 EGHI 120950Z 26008KT 230V300 9999 FEW014 BKN016 08/06 Q1025 W (260°) 9.2mph 8°C 6°C
12/01/19 09:20 EGHI 120920Z 24006KT 210V270 9999 FEW013 BKN015 08/06 Q1025 WSW (240°) 6.9mph 8°C 6°C
12/01/19 08:50 EGHI 120850Z 25005KT 210V280 9999 FEW013 BKN015 08/06 Q1026 WSW (250°) 5.8mph 8°C 6°C
12/01/19 08:20 EGHI 120820Z 25008KT 210V290 9999 FEW015 BKN022 08/06 Q1026 WSW (250°) 9.2mph 8°C 6°C
12/01/19 07:50 EGHI 120750Z 26007KT 220V280 9999 FEW015 BKN020 08/06 Q1026 W (260°) 8.1mph 8°C 6°C
12/01/19 07:20 EGHI 120720Z 26007KT 230V290 9999 FEW015 BKN020 08/06 Q1026 W (260°) 8.1mph 8°C 6°C
12/01/19 06:50 EGHI 120650Z 24005KT 9999 SCT014 BKN018 08/05 Q1026 WSW (240°) 5.8mph 8°C 5°C
12/01/19 06:20 EGHI 120620Z 24005KT 210V270 9999 BKN014 08/05 Q1026 WSW (240°) 5.8mph 8°C 5°C
12/01/19 05:50 EGHI 120550Z 23004KT 200V270 9999 BKN018 07/05 Q1026 SW (230°) 4.6mph 7°C 5°C
11/01/19 22:20 EGHI 112220Z 27003KT 9999 BKN037 07/03 Q1031 W (270°) 3.5mph 7°C 3°C
11/01/19 21:50 EGHI 112150Z VRB03KT 9999 BKN035 07/03 Q1031 N (0°) 3.5mph 7°C 3°C
11/01/19 21:20 EGHI 112120Z VRB03KT 9999 BKN034 07/03 Q1031 N (0°) 3.5mph 7°C 3°C
11/01/19 20:50 EGHI 112050Z VRB02KT 9999 BKN034 07/02 Q1031 N (0°) 2.3mph 7°C 2°C
11/01/19 20:20 EGHI 112020Z VRB03KT 9999 BKN032 07/02 Q1031 N (0°) 3.5mph 7°C 2°C
11/01/19 19:50 EGHI 111950Z VRB02KT 9999 BKN030 07/02 Q1031 N (0°) 2.3mph 7°C 2°C
11/01/19 19:20 EGHI 111920Z VRB03KT 9999 BKN032 07/03 Q1032 N (0°) 3.5mph 7°C 3°C
11/01/19 18:50 EGHI 111850Z VRB03KT 9999 BKN030 06/03 Q1032 N (0°) 3.5mph 6°C 3°C
11/01/19 18:20 EGHI 111820Z 32004KT 9999 SCT030 06/03 Q1031 NW (320°) 4.6mph 6°C 3°C
11/01/19 17:50 EGHI 111750Z VRB01KT CAVOK 05/02 Q1031 N (0°) 1.2mph 5°C 2°C
11/01/19 17:20 EGHI 111720Z VRB01KT CAVOK 05/03 Q1031 N (0°) 1.2mph 5°C 3°C
11/01/19 16:50 EGHI 111650Z 31003KT CAVOK 06/03 Q1031 NW (310°) 3.5mph 6°C 3°C
11/01/19 16:20 EGHI 111620Z VRB01KT CAVOK 07/03 Q1031 N (0°) 1.2mph 7°C 3°C
11/01/19 15:50 EGHI 111550Z VRB03KT 9999 FEW040 07/03 Q1031 N (0°) 3.5mph 7°C 3°C
11/01/19 15:20 EGHI 111520Z 34007KT 9999 FEW040 08/03 Q1031 NNW (340°) 8.1mph 8°C 3°C
11/01/19 14:50 EGHI 111450Z 34007KT 310V010 CAVOK 08/03 Q1031 NNW (340°) 8.1mph 8°C 3°C
11/01/19 14:20 EGHI 111420Z 34006KT 310V010 9999 FEW040 08/03 Q1031 NNW (340°) 6.9mph 8°C 3°C
11/01/19 13:50 EGHI 111350Z 34005KT 9999 FEW040 08/03 Q1031 NNW (340°) 5.8mph 8°C 3°C